Time;durP1;ratioP1;P1;durP2;ratioP2;P2;SDS_P1;SDS_P2;PMS_P1;PMS_P2;Temp;Humidity;BMP_temperature;BMP_pressure;BME280_temperature;BME280_humidity;BME280_pressure;Samples;Min_cycle;Max_cycle;Signal;HPM_P1;HPM_P2
2021/10/20 00:00:58;;;;;;;6.55;3.75;;;16.30;99.90;;;;;;5066426;28;20396;-73
2021/10/20 00:03:24;;;;;;;5.90;3.55;;;16.30;99.90;;;;;;5067868;28;20060;-72
2021/10/20 00:05:50;;;;;;;4.70;3.45;;;16.20;99.90;;;;;;5068526;28;20024;-73
2021/10/20 00:08:15;;;;;;;4.95;3.10;;;16.20;99.90;;;;;;5062972;28;20032;-72
2021/10/20 00:10:41;;;;;;;4.43;3.30;;;16.30;99.90;;;;;;5072339;28;20483;-74
2021/10/20 00:13:07;;;;;;;3.97;3.63;;;16.30;99.90;;;;;;5065358;28;20052;-72
2021/10/20 00:15:33;;;;;;;5.95;3.63;;;16.30;99.90;;;;;;5064133;28;20495;-73
2021/10/20 00:17:58;;;;;;;5.10;3.30;;;16.30;99.90;;;;;;5064341;28;20404;-72
2021/10/20 00:20:26;;;;;;;4.15;3.75;;;16.30;99.90;;;;;;5064258;28;20021;-73
2021/10/20 00:22:53;;;;;;;6.20;3.35;;;16.30;99.90;;;;;;5070190;28;20024;-73
2021/10/20 00:25:19;;;;;;;5.22;3.67;;;16.30;99.90;;;;;;5075697;28;20024;-72
2021/10/20 00:27:46;;;;;;;3.53;3.20;;;16.30;99.90;;;;;;5075351;28;20030;-72
2021/10/20 00:30:12;;;;;;;5.90;3.40;;;16.30;99.90;;;;;;5067749;28;20025;-72
2021/10/20 00:32:38;;;;;;;4.53;3.22;;;16.30;99.90;;;;;;5068163;28;20041;-72
2021/10/20 00:35:05;;;;;;;4.72;3.55;;;16.30;99.90;;;;;;5069046;28;20028;-72
2021/10/20 00:37:31;;;;;;;6.22;3.10;;;16.30;99.90;;;;;;5064146;28;20056;-75
2021/10/20 00:39:56;;;;;;;6.80;3.40;;;16.30;99.90;;;;;;5066781;28;20484;-75
2021/10/20 00:42:23;;;;;;;7.57;3.55;;;16.30;99.90;;;;;;5063855;28;20033;-72
2021/10/20 00:44:58;;;;;;;5.65;3.50;;;16.30;99.90;;;;;;5068053;28;20021;-73
2021/10/20 00:47:25;;;;;;;4.85;3.33;;;16.20;99.90;;;;;;5063582;28;20025;-73
2021/10/20 00:49:52;;;;;;;3.70;3.40;;;16.30;99.90;;;;;;5066006;28;20574;-73
2021/10/20 00:52:19;;;;;;;4.47;3.17;;;16.20;99.90;;;;;;5065877;28;20024;-72
2021/10/20 00:54:45;;;;;;;5.03;3.13;;;16.30;99.90;;;;;;5068208;28;20397;-72
2021/10/20 00:57:12;;;;;;;5.82;3.15;;;16.30;99.90;;;;;;5068538;28;20051;-73
2021/10/20 00:59:40;;;;;;;8.02;3.20;;;16.20;99.90;;;;;;5069211;28;20028;-73
2021/10/20 01:02:07;;;;;;;5.00;2.80;;;16.20;99.90;;;;;;5066712;28;20495;-75
2021/10/20 01:04:33;;;;;;;4.45;3.20;;;16.30;99.90;;;;;;5062983;28;20025;-75
2021/10/20 01:06:59;;;;;;;6.13;3.38;;;16.30;99.90;;;;;;5064309;28;20487;-76
2021/10/20 01:09:25;;;;;;;4.45;3.42;;;16.30;99.90;;;;;;5063347;28;20095;-74
2021/10/20 01:11:52;;;;;;;4.10;3.45;;;16.30;99.90;;;;;;5067675;28;20481;-75
2021/10/20 01:14:19;;;;;;;5.72;3.25;;;16.30;99.90;;;;;;5063282;28;20575;-75
2021/10/20 01:16:45;;;;;;;6.03;3.75;;;16.20;99.90;;;;;;5065173;28;20032;-75
2021/10/20 01:19:13;;;;;;;4.60;3.20;;;16.20;99.90;;;;;;5069637;28;20033;-75
2021/10/20 01:21:39;;;;;;;4.75;3.42;;;16.20;99.90;;;;;;5059041;28;20024;-74
2021/10/20 01:24:06;;;;;;;6.75;3.58;;;16.20;99.90;;;;;;5064763;28;20469;-73
2021/10/20 01:26:32;;;;;;;3.65;3.33;;;16.20;99.90;;;;;;5063072;28;20025;-72
2021/10/20 01:28:58;;;;;;;8.05;3.72;;;16.20;99.90;;;;;;5068097;28;20135;-73
2021/10/20 01:31:23;;;;;;;4.25;3.08;;;16.10;99.90;;;;;;5063811;28;20036;-73
2021/10/20 01:33:49;;;;;;;4.50;3.45;;;16.20;99.90;;;;;;5073682;28;20404;-73
2021/10/20 01:36:15;;;;;;;4.50;3.03;;;16.30;99.90;;;;;;5066729;28;20040;-75
2021/10/20 01:38:40;;;;;;;5.20;3.42;;;16.20;99.90;;;;;;5066661;28;20041;-72
2021/10/20 01:41:06;;;;;;;4.32;3.85;;;16.20;99.90;;;;;;5064338;28;20028;-72
2021/10/20 01:43:38;;;;;;;3.85;3.45;;;16.20;99.90;;;;;;5065839;28;20370;-72
2021/10/20 01:46:04;;;;;;;5.68;3.33;;;16.10;99.90;;;;;;5063080;28;20036;-73
2021/10/20 01:48:30;;;;;;;4.65;2.92;;;16.20;99.90;;;;;;5063992;28;20029;-72
2021/10/20 01:50:55;;;;;;;5.15;3.55;;;16.20;99.90;;;;;;5066139;28;20035;-72
2021/10/20 01:53:21;;;;;;;3.97;3.50;;;16.20;99.90;;;;;;5065454;28;20495;-72
2021/10/20 01:55:46;;;;;;;6.75;3.70;;;16.20;99.90;;;;;;5066123;28;20556;-73
2021/10/20 01:58:12;;;;;;;7.43;3.35;;;16.20;99.90;;;;;;5062394;28;20396;-72
2021/10/20 02:00:38;;;;;;;4.90;3.95;;;16.20;99.90;;;;;;5061871;28;20024;-72
2021/10/20 02:03:03;;;;;;;3.72;3.15;;;16.20;99.90;;;;;;5059231;28;20107;-74
2021/10/20 02:05:30;;;;;;;4.55;3.75;;;16.20;99.90;;;;;;5068426;28;20021;-71
2021/10/20 02:07:55;;;;;;;5.65;3.60;;;16.20;99.90;;;;;;5061731;28;20029;-72
2021/10/20 02:10:21;;;;;;;5.65;3.92;;;16.20;99.90;;;;;;5067066;28;20025;-75
2021/10/20 02:12:47;;;;;;;6.10;3.85;;;16.20;99.90;;;;;;5067617;28;20035;-74
2021/10/20 02:15:12;;;;;;;6.63;3.70;;;16.20;99.90;;;;;;5069814;28;20032;-72
2021/10/20 02:17:38;;;;;;;5.50;3.65;;;16.30;99.90;;;;;;5059726;28;20520;-72
2021/10/20 02:20:10;;;;;;;4.03;3.53;;;16.20;99.90;;;;;;5062191;28;20020;-72
2021/10/20 02:22:35;;;;;;;7.25;3.67;;;16.30;99.90;;;;;;5060610;28;20016;-72
2021/10/20 02:25:02;;;;;;;5.10;3.58;;;16.20;99.90;;;;;;5070579;28;20103;-72
2021/10/20 02:27:28;;;;;;;6.25;3.67;;;16.30;99.90;;;;;;5062954;28;20024;-72
2021/10/20 02:29:55;;;;;;;6.85;3.92;;;16.30;99.90;;;;;;5063335;28;20094;-72
2021/10/20 02:32:20;;;;;;;7.13;3.88;;;16.30;99.90;;;;;;5063618;28;20024;-72
2021/10/20 02:34:47;;;;;;;6.97;3.67;;;16.30;99.90;;;;;;5061179;28;20371;-73
2021/10/20 02:37:13;;;;;;;5.68;3.60;;;16.20;99.90;;;;;;5058385;28;20036;-72
2021/10/20 02:39:39;;;;;;;6.50;3.90;;;16.30;99.90;;;;;;5066981;28;20500;-71
2021/10/20 02:42:05;;;;;;;3.75;3.35;;;16.30;99.90;;;;;;5067513;28;20043;-72
2021/10/20 02:44:31;;;;;;;9.10;4.07;;;16.30;99.90;;;;;;5069635;28;20028;-72
2021/10/20 02:46:57;;;;;;;6.75;3.90;;;16.30;99.90;;;;;;5061121;28;20029;-72
2021/10/20 02:49:23;;;;;;;8.15;3.95;;;16.20;99.90;;;;;;5064078;28;20078;-72
2021/10/20 02:51:48;;;;;;;9.13;4.28;;;16.30;99.90;;;;;;5068995;28;20048;-72
2021/10/20 02:54:14;;;;;;;8.32;3.60;;;16.30;99.90;;;;;;5064988;28;20053;-72
2021/10/20 02:56:40;;;;;;;5.88;3.97;;;16.30;99.90;;;;;;5064531;28;20028;-72
2021/10/20 02:59:06;;;;;;;4.57;3.50;;;16.30;99.90;;;;;;5066368;28;20040;-72
2021/10/20 03:01:31;;;;;;;7.97;3.53;;;16.40;99.90;;;;;;5062388;28;20024;-74
2021/10/20 03:03:57;;;;;;;7.70;4.13;;;16.40;99.90;;;;;;5072336;28;20123;-74
2021/10/20 03:06:23;;;;;;;5.32;4.00;;;16.30;99.90;;;;;;5064244;28;20025;-73
2021/10/20 03:08:49;;;;;;;5.57;4.22;;;16.40;99.90;;;;;;5063184;28;20042;-73
2021/10/20 03:11:14;;;;;;;8.95;4.45;;;16.30;99.90;;;;;;5063971;28;20033;-73
2021/10/20 03:13:40;;;;;;;5.65;4.00;;;16.40;99.90;;;;;;5063072;28;20035;-72
2021/10/20 03:16:06;;;;;;;4.20;3.80;;;16.30;99.90;;;;;;5062552;28;20122;-73
2021/10/20 03:18:33;;;;;;;6.40;3.92;;;16.40;99.90;;;;;;5065981;28;20036;-72
2021/10/20 03:20:59;;;;;;;5.88;4.43;;;16.30;99.90;;;;;;5065555;28;20082;-71
2021/10/20 03:23:25;;;;;;;6.22;4.05;;;16.40;99.90;;;;;;5067978;28;20036;-73
2021/10/20 03:25:51;;;;;;;6.20;3.38;;;16.40;99.90;;;;;;5060141;28;20689;-72
2021/10/20 03:28:16;;;;;;;4.50;3.78;;;16.40;99.90;;;;;;5062663;28;20033;-72
2021/10/20 03:30:42;;;;;;;6.95;4.20;;;16.40;99.90;;;;;;5068195;28;20017;-74
2021/10/20 03:33:08;;;;;;;4.68;3.70;;;16.40;99.90;;;;;;5060789;28;20033;-73
2021/10/20 03:35:34;;;;;;;9.88;4.03;;;16.40;99.90;;;;;;5066072;28;20048;-72
2021/10/20 03:37:59;;;;;;;5.70;3.70;;;16.40;99.90;;;;;;5058490;28;20082;-73
2021/10/20 03:40:25;;;;;;;7.30;4.30;;;16.40;99.90;;;;;;5064638;28;20074;-72
2021/10/20 03:42:51;;;;;;;6.25;3.65;;;16.30;99.90;;;;;;5063186;28;20033;-73
2021/10/20 03:45:16;;;;;;;5.10;3.92;;;16.30;99.90;;;;;;5064276;28;20025;-73
2021/10/20 03:47:43;;;;;;;7.45;4.13;;;16.40;99.90;;;;;;5062278;28;20035;-71
2021/10/20 03:50:09;;;;;;;5.90;3.85;;;16.30;99.90;;;;;;5059076;28;20447;-71
2021/10/20 03:52:35;;;;;;;6.60;4.03;;;16.30;99.90;;;;;;5060887;28;20056;-72
2021/10/20 03:55:01;;;;;;;7.50;4.28;;;16.30;99.90;;;;;;5069011;28;20056;-72
2021/10/20 03:57:27;;;;;;;8.60;4.57;;;16.30;99.90;;;;;;5062207;28;20029;-72
2021/10/20 03:59:52;;;;;;;5.28;4.35;;;16.40;99.90;;;;;;5068330;28;20035;-72
2021/10/20 04:02:18;;;;;;;4.97;4.15;;;16.30;99.90;;;;;;5061506;28;20574;-74
2021/10/20 04:04:44;;;;;;;4.82;4.07;;;16.30;99.90;;;;;;5070120;28;20380;-73
2021/10/20 04:07:09;;;;;;;7.90;4.40;;;16.30;99.90;;;;;;5060042;28;20033;-72
2021/10/20 04:09:35;;;;;;;6.57;3.90;;;16.30;99.90;;;;;;5060414;28;20108;-72
2021/10/20 04:12:01;;;;;;;4.95;4.07;;;16.30;99.90;;;;;;5059855;28;20033;-72
2021/10/20 04:14:26;;;;;;;5.57;4.78;;;16.30;99.90;;;;;;5062382;28;20037;-72
2021/10/20 04:16:52;;;;;;;8.30;4.75;;;16.30;99.90;;;;;;5054780;28;20590;-71
2021/10/20 04:19:17;;;;;;;8.27;5.03;;;16.30;99.90;;;;;;5066424;28;20171;-72
2021/10/20 04:21:43;;;;;;;6.47;4.28;;;16.30;99.90;;;;;;5063541;28;20053;-72
2021/10/20 04:24:09;;;;;;;8.57;4.57;;;16.30;99.90;;;;;;5060302;28;20380;-72
2021/10/20 04:26:34;;;;;;;4.97;4.47;;;16.30;99.90;;;;;;5067174;28;20105;-73
2021/10/20 04:29:00;;;;;;;4.63;4.18;;;16.30;99.90;;;;;;5066146;28;20465;-71
2021/10/20 04:31:26;;;;;;;6.55;4.68;;;16.40;99.90;;;;;;5071046;28;20035;-72
2021/10/20 04:33:51;;;;;;;4.38;3.97;;;16.40;99.90;;;;;;5064718;28;20024;-71
2021/10/20 04:36:17;;;;;;;9.40;4.57;;;16.40;99.90;;;;;;5067686;28;20028;-72
2021/10/20 04:38:43;;;;;;;8.20;4.57;;;16.40;99.90;;;;;;5067299;28;20428;-72
2021/10/20 04:41:08;;;;;;;6.05;4.75;;;16.30;99.90;;;;;;5064252;28;20036;-72
2021/10/20 04:43:34;;;;;;;6.05;4.63;;;16.30;99.90;;;;;;5069831;28;20387;-72
2021/10/20 04:46:00;;;;;;;6.60;5.10;;;16.30;99.90;;;;;;5061523;28;20025;-71
2021/10/20 04:48:26;;;;;;;7.70;4.53;;;16.30;99.90;;;;;;5067247;28;20073;-72
2021/10/20 04:50:51;;;;;;;7.22;4.93;;;16.30;99.90;;;;;;5068331;28;20024;-72
2021/10/20 04:53:17;;;;;;;5.50;5.00;;;16.30;99.90;;;;;;5061958;28;20131;-71
2021/10/20 04:55:42;;;;;;;6.80;4.95;;;16.30;99.90;;;;;;5061353;28;20021;-72
2021/10/20 04:58:08;;;;;;;7.63;4.70;;;16.30;99.90;;;;;;5071384;28;20040;-72
2021/10/20 05:00:35;;;;;;;5.72;4.85;;;16.30;99.90;;;;;;5063194;28;20028;-71
2021/10/20 05:03:01;;;;;;;9.60;4.63;;;16.30;99.90;;;;;;5064809;28;20041;-72
2021/10/20 05:05:30;;;;;;;7.70;5.97;;;16.30;99.90;;;;;;5071911;28;20473;-71
2021/10/20 05:08:00;;;;;;;11.23;5.90;;;16.30;99.90;;;;;;5063233;28;20116;-73
2021/10/20 05:10:27;;;;;;;5.55;4.63;;;16.30;99.90;;;;;;5067563;28;20384;-72
2021/10/20 05:12:54;;;;;;;7.65;5.10;;;16.30;99.90;;;;;;5064917;28;20032;-73
2021/10/20 05:15:20;;;;;;;5.82;5.22;;;16.30;99.90;;;;;;5072488;28;20060;-71
2021/10/20 05:17:46;;;;;;;8.65;5.13;;;16.30;99.90;;;;;;5062386;28;20047;-71
2021/10/20 05:20:14;;;;;;;9.02;5.45;;;16.30;99.90;;;;;;5069734;28;20074;-72
2021/10/20 05:22:42;;;;;;;7.13;5.10;;;16.30;99.90;;;;;;5064014;28;20091;-73
2021/10/20 05:25:09;;;;;;;7.05;5.93;;;16.30;99.90;;;;;;5072077;28;20028;-74
2021/10/20 05:27:35;;;;;;;11.82;5.50;;;16.40;99.90;;;;;;5057902;28;20033;-72
2021/10/20 05:30:02;;;;;;;8.02;5.47;;;16.30;99.90;;;;;;5063912;28;20048;-72
2021/10/20 05:32:28;;;;;;;9.80;5.15;;;16.30;99.90;;;;;;5064381;28;20052;-72
2021/10/20 05:34:54;;;;;;;9.23;4.72;;;16.40;99.90;;;;;;5066371;28;20477;-72
2021/10/20 05:37:21;;;;;;;6.70;5.15;;;16.40;99.90;;;;;;5063712;28;20036;-70
2021/10/20 05:39:48;;;;;;;11.23;5.63;;;16.40;99.90;;;;;;5059922;28;20037;-73
2021/10/20 05:42:14;;;;;;;7.55;5.32;;;16.40;99.90;;;;;;5066052;28;20020;-71
2021/10/20 05:44:40;;;;;;;7.97;4.65;;;16.40;99.90;;;;;;5059005;28;20496;-71
2021/10/20 05:47:06;;;;;;;8.95;4.63;;;16.40;99.90;;;;;;5065441;28;20016;-71
2021/10/20 05:49:31;;;;;;;5.80;4.78;;;16.40;99.90;;;;;;5066231;28;20526;-71
2021/10/20 05:51:57;;;;;;;7.68;5.18;;;16.30;99.90;;;;;;5059686;28;20029;-72
2021/10/20 05:54:23;;;;;;;6.22;5.30;;;16.40;99.90;;;;;;5064057;28;20029;-71
2021/10/20 05:56:48;;;;;;;5.95;5.00;;;16.40;99.90;;;;;;5067375;28;20021;-74
2021/10/20 05:59:14;;;;;;;7.40;5.55;;;16.40;99.90;;;;;;5065401;28;20070;-72
2021/10/20 06:01:40;;;;;;;7.20;5.07;;;16.40;99.90;;;;;;5063705;28;20032;-72
2021/10/20 06:04:06;;;;;;;8.05;4.88;;;16.40;99.90;;;;;;5060075;28;20473;-72
2021/10/20 06:06:32;;;;;;;5.80;4.80;;;16.40;99.90;;;;;;5059700;28;20473;-71
2021/10/20 06:08:58;;;;;;;7.47;4.78;;;16.30;99.90;;;;;;5054045;28;20119;-74
2021/10/20 06:11:23;;;;;;;9.35;5.05;;;16.30;99.90;;;;;;5063047;28;20151;-75
2021/10/20 06:13:49;;;;;;;9.50;5.35;;;16.30;99.90;;;;;;5057322;28;20495;-74
2021/10/20 06:16:15;;;;;;;5.82;4.97;;;16.30;99.90;;;;;;5063553;28;20029;-75
2021/10/20 06:18:41;;;;;;;6.57;4.95;;;16.30;99.90;;;;;;5058254;28;20029;-74
2021/10/20 06:21:06;;;;;;;7.30;5.68;;;16.30;99.90;;;;;;5067172;28;20473;-74
2021/10/20 06:23:32;;;;;;;9.27;5.40;;;16.30;99.90;;;;;;5067171;28;20032;-74
2021/10/20 06:25:59;;;;;;;6.45;5.05;;;16.30;99.90;;;;;;5064358;28;20372;-75
2021/10/20 06:28:25;;;;;;;6.85;6.05;;;16.30;99.90;;;;;;5065041;28;20028;-74
2021/10/20 06:30:51;;;;;;;6.15;5.55;;;16.40;99.90;;;;;;5064168;28;20099;-72
2021/10/20 06:33:16;;;;;;;7.53;4.55;;;16.30;99.90;;;;;;5064377;28;20104;-75
2021/10/20 06:35:43;;;;;;;6.15;5.00;;;16.40;99.90;;;;;;5061316;28;20036;-74
2021/10/20 06:38:08;;;;;;;9.50;5.07;;;16.40;99.90;;;;;;5060397;28;20597;-75
2021/10/20 06:40:34;;;;;;;9.27;6.15;;;16.40;99.90;;;;;;5056099;28;20033;-75
2021/10/20 06:43:00;;;;;;;7.28;5.30;;;16.40;99.90;;;;;;5061403;28;20036;-75
2021/10/20 06:45:26;;;;;;;5.88;5.28;;;16.40;99.90;;;;;;5062761;28;20025;-74
2021/10/20 06:47:52;;;;;;;6.47;5.13;;;16.30;99.90;;;;;;5059699;28;20039;-75
2021/10/20 06:50:18;;;;;;;6.88;5.70;;;16.30;99.90;;;;;;5064003;28;20029;-73
2021/10/20 06:52:45;;;;;;;12.23;6.88;;;16.30;99.90;;;;;;5057626;28;20021;-74
2021/10/20 06:55:11;;;;;;;10.35;5.63;;;16.30;99.90;;;;;;5060891;28;20024;-75
2021/10/20 06:57:37;;;;;;;5.80;5.20;;;16.40;99.90;;;;;;5065478;28;20036;-75
2021/10/20 07:00:04;;;;;;;6.82;4.88;;;16.40;99.90;;;;;;5054613;28;20513;-76
2021/10/20 07:02:30;;;;;;;8.10;5.82;;;16.50;99.90;;;;;;5059422;28;20025;-75
2021/10/20 07:04:56;;;;;;;8.70;6.55;;;16.50;99.90;;;;;;5066545;28;20044;-75
2021/10/20 07:07:21;;;;;;;7.53;5.63;;;16.50;99.90;;;;;;5058502;28;20066;-75
2021/10/20 07:09:47;;;;;;;9.30;5.60;;;16.50;99.90;;;;;;5066446;28;20035;-75
2021/10/20 07:12:13;;;;;;;5.97;5.30;;;16.50;99.90;;;;;;5066160;28;20388;-75
2021/10/20 07:14:39;;;;;;;7.00;6.07;;;16.50;99.90;;;;;;5062923;28;20025;-75
2021/10/20 07:17:08;;;;;;;8.93;5.30;;;16.60;99.90;;;;;;5069026;28;20516;-75
2021/10/20 07:19:35;;;;;;;7.50;4.75;;;16.60;99.90;;;;;;5056575;28;20047;-75
2021/10/20 07:22:00;;;;;;;10.45;5.68;;;16.60;99.90;;;;;;5065609;28;20021;-76
2021/10/20 07:24:27;;;;;;;8.15;4.45;;;16.50;99.90;;;;;;5053600;28;20034;-74
2021/10/20 07:26:52;;;;;;;10.77;5.50;;;16.60;99.90;;;;;;5068702;28;20499;-74
2021/10/20 07:29:18;;;;;;;5.95;5.35;;;16.60;99.90;;;;;;5064251;28;20028;-75
2021/10/20 07:31:44;;;;;;;8.40;6.20;;;16.60;99.90;;;;;;5065265;28;20024;-75
2021/10/20 07:34:09;;;;;;;8.02;5.57;;;16.60;99.90;;;;;;5065930;28;20128;-74
2021/10/20 07:36:37;;;;;;;6.82;5.78;;;16.60;99.90;;;;;;5060771;28;20476;-75
2021/10/20 07:39:03;;;;;;;7.75;5.72;;;16.70;99.90;;;;;;5043950;28;20036;-72
2021/10/20 07:41:28;;;;;;;13.20;5.63;;;16.70;99.90;;;;;;5053740;28;20102;-74
2021/10/20 07:43:54;;;;;;;9.90;5.28;;;16.60;99.90;;;;;;5064994;28;20113;-73
2021/10/20 07:46:20;;;;;;;7.70;5.95;;;16.70;99.90;;;;;;5058776;28;20017;-72
2021/10/20 07:48:46;;;;;;;9.40;5.90;;;16.80;99.90;;;;;;5057751;28;20020;-73
2021/10/20 07:51:11;;;;;;;7.82;5.30;;;16.70;99.90;;;;;;5066932;28;20105;-76
2021/10/20 07:53:37;;;;;;;7.00;5.68;;;16.80;99.90;;;;;;5066135;28;20455;-72
2021/10/20 07:56:03;;;;;;;11.02;6.53;;;16.80;99.90;;;;;;5065839;28;20418;-72
2021/10/20 07:58:28;;;;;;;9.32;5.93;;;16.80;99.90;;;;;;5062973;28;20123;-75
2021/10/20 08:00:54;;;;;;;9.30;6.40;;;16.80;99.90;;;;;;5059193;28;20031;-74
2021/10/20 08:03:20;;;;;;;8.18;6.13;;;16.80;99.90;;;;;;5058404;28;20465;-72
2021/10/20 08:05:45;;;;;;;9.85;6.22;;;16.80;99.90;;;;;;5057836;28;20043;-74
2021/10/20 08:08:13;;;;;;;7.97;6.00;;;16.90;99.90;;;;;;5059522;28;20033;-74
2021/10/20 08:10:40;;;;;;;9.30;5.68;;;16.90;99.90;;;;;;5065468;28;20025;-73
2021/10/20 08:13:06;;;;;;;9.10;5.78;;;17.00;99.90;;;;;;5066592;28;20029;-73
2021/10/20 08:15:33;;;;;;;7.40;5.70;;;16.90;99.90;;;;;;5066063;28;20012;-75
2021/10/20 08:18:03;;;;;;;14.10;6.05;;;16.90;99.90;;;;;;5071863;28;20068;-73
2021/10/20 08:20:32;;;;;;;8.68;6.25;;;17.00;99.90;;;;;;5068364;28;20113;-73
2021/10/20 08:23:03;;;;;;;8.95;6.28;;;16.90;99.90;;;;;;5061500;28;20063;-74
2021/10/20 08:25:30;;;;;;;8.13;6.05;;;16.90;99.90;;;;;;5066059;28;20043;-75
2021/10/20 08:27:56;;;;;;;9.98;6.43;;;16.90;99.90;;;;;;5063862;28;20500;-75
2021/10/20 08:30:22;;;;;;;7.80;6.53;;;16.90;99.90;;;;;;5065238;28;20028;-75
2021/10/20 08:32:55;;;;;;;8.05;7.25;;;16.90;99.90;;;;;;5065395;28;20032;-79
2021/10/20 08:35:21;;;;;;;;;;;16.90;99.90;;;;;;5070129;28;20027;-75
2021/10/20 08:37:54;;;;;;;11.10;7.32;;;16.80;99.90;;;;;;5068131;28;19916;-78
2021/10/20 08:40:22;;;;;;;8.98;7.18;;;16.90;99.90;;;;;;5059155;28;20251;-74
2021/10/20 08:42:48;;;;;;;10.43;7.13;;;16.90;99.90;;;;;;5064894;28;20032;-76
2021/10/20 08:45:14;;;;;;;13.50;7.28;;;16.90;99.90;;;;;;5068697;28;20025;-77
2021/10/20 08:47:42;;;;;;;13.68;7.43;;;16.90;99.90;;;;;;5057423;28;20028;-77
2021/10/20 08:50:08;;;;;;;9.98;7.15;;;16.90;99.90;;;;;;5064798;28;20028;-75
2021/10/20 08:52:34;;;;;;;8.80;6.43;;;17.00;99.90;;;;;;5067128;28;20122;-76
2021/10/20 08:55:00;;;;;;;13.52;6.93;;;17.00;99.90;;;;;;5065423;28;20123;-77
2021/10/20 08:57:26;;;;;;;9.73;7.35;;;17.20;99.90;;;;;;5062473;28;20067;-77
2021/10/20 08:59:52;;;;;;;10.90;7.00;;;17.20;99.90;;;;;;5063850;28;20121;-77
2021/10/20 09:02:22;;;;;;;8.02;6.68;;;17.20;99.90;;;;;;5061797;28;20460;-74
2021/10/20 09:04:55;;;;;;;8.85;7.03;;;17.20;99.90;;;;;;5065353;28;20025;-77
2021/10/20 09:07:20;;;;;;;;;;;17.30;99.90;;;;;;5084501;28;20021;-77
2021/10/20 09:09:53;;;;;;;10.25;7.15;;;17.30;99.90;;;;;;5062284;28;19919;-77
2021/10/20 09:12:26;;;;;;;;;;;17.40;99.90;;;;;;5071564;28;20024;-75
2021/10/20 09:15:01;;;;;;;9.05;6.50;;;17.50;99.90;;;;;;5070935;28;19908;-73
2021/10/20 09:17:47;;;;;;;7.40;6.70;;;17.70;99.90;;;;;;5063814;28;20036;-74
2021/10/20 09:20:17;;;;;;;7.75;6.40;;;17.80;99.90;;;;;;5073408;28;20071;-73
2021/10/20 09:23:16;;;;;;;7.85;6.38;;;17.90;99.90;;;;;;5071042;28;20498;-74
2021/10/20 09:25:41;;;;;;;11.27;6.63;;;18.00;99.90;;;;;;5067025;28;20555;-73
2021/10/20 09:28:33;;;;;;;22.42;6.60;;;18.10;99.90;;;;;;5063461;28;20044;-73
2021/10/20 09:31:02;;;;;;;9.15;5.70;;;18.10;99.90;;;;;;5070953;28;20024;-73
2021/10/20 09:33:29;;;;;;;7.18;5.95;;;18.20;99.90;;;;;;5069803;28;20039;-73
2021/10/20 09:36:01;;;;;;;6.68;5.20;;;18.10;99.90;;;;;;5072299;28;20028;-74
2021/10/20 09:38:32;;;;;;;8.77;5.80;;;18.10;99.90;;;;;;5064285;28;20048;-75
2021/10/20 09:41:03;;;;;;;12.10;6.55;;;18.10;99.90;;;;;;5065193;28;20025;-76
2021/10/20 09:43:28;;;;;;;6.68;6.00;;;18.10;99.90;;;;;;5073669;28;20024;-77
2021/10/20 09:45:54;;;;;;;8.10;5.82;;;18.00;99.90;;;;;;5063408;28;20200;-82
2021/10/20 09:48:26;;;;;;;8.93;6.30;;;18.10;99.90;;;;;;5059987;28;20021;-76
2021/10/20 09:51:06;;;;;;;9.98;6.50;;;18.10;99.90;;;;;;5060741;28;20180;-78
2021/10/20 09:53:35;;;;;;;6.50;5.63;;;18.10;99.90;;;;;;5067340;28;20103;-79
2021/10/20 09:56:18;;;;;;;7.85;6.10;;;18.10;99.90;;;;;;5065273;28;20037;-76
2021/10/20 09:58:46;;;;;;;11.32;6.13;;;18.00;99.90;;;;;;5064249;28;20090;-77
2021/10/20 10:01:13;;;;;;;8.30;5.82;;;18.10;99.90;;;;;;5071113;28;20028;-78
2021/10/20 10:03:41;;;;;;;7.82;6.10;;;18.20;99.90;;;;;;5063693;28;20366;-75
2021/10/20 10:06:06;;;;;;;8.85;5.57;;;18.20;99.90;;;;;;5062861;28;20024;-78
2021/10/20 10:08:32;;;;;;;7.28;6.30;;;18.20;99.90;;;;;;5065432;28;20029;-77
2021/10/20 10:10:59;;;;;;;8.07;6.43;;;18.30;99.90;;;;;;5069031;28;20033;-75
2021/10/20 10:13:34;;;;;;;8.32;5.85;;;18.30;99.90;;;;;;5076766;28;20024;-75
2021/10/20 10:16:00;;;;;;;8.52;6.72;;;18.30;99.90;;;;;;5073128;28;20036;-77
2021/10/20 10:18:27;;;;;;;9.70;6.13;;;18.30;99.90;;;;;;5068999;28;20045;-76
2021/10/20 10:20:53;;;;;;;8.55;6.13;;;18.30;99.90;;;;;;5066879;28;20105;-76
2021/10/20 10:23:22;;;;;;;8.35;6.70;;;18.30;99.90;;;;;;5058453;28;20071;-76
2021/10/20 10:25:58;;;;;;;6.78;5.68;;;18.30;99.90;;;;;;5069702;28;20385;-74
2021/10/20 10:28:33;;;;;;;7.35;5.53;;;18.40;99.90;;;;;;5066758;28;20512;-76
2021/10/20 10:31:11;;;;;;;6.60;5.88;;;18.40;99.90;;;;;;5068198;28;20082;-74
2021/10/20 10:33:53;;;;;;;9.10;6.10;;;18.40;99.90;;;;;;5075558;28;20032;-76
2021/10/20 10:36:22;;;;;;;8.05;6.25;;;18.30;99.90;;;;;;5065258;28;20013;-76
2021/10/20 10:38:52;;;;;;;8.77;6.65;;;18.40;99.90;;;;;;5070390;28;20122;-76
2021/10/20 10:41:26;;;;;;;8.35;6.07;;;18.30;99.90;;;;;;5064121;28;20036;-77
2021/10/20 10:44:05;;;;;;;6.45;5.80;;;18.30;99.90;;;;;;5066306;28;20039;-74
2021/10/20 10:46:33;;;;;;;6.93;5.65;;;18.30;99.90;;;;;;5066459;28;20119;-80
2021/10/20 10:49:01;;;;;;;10.25;6.18;;;18.30;99.90;;;;;;5069665;28;20025;-80
2021/10/20 10:51:26;;;;;;;7.82;6.35;;;18.40;99.90;;;;;;5070498;28;20032;-79
2021/10/20 10:53:54;;;;;;;6.50;5.88;;;18.50;99.90;;;;;;5067263;28;20175;-80
2021/10/20 10:56:21;;;;;;;6.78;5.43;;;18.50;99.90;;;;;;5066829;28;20111;-79
2021/10/20 10:59:08;;;;;;;7.00;6.22;;;18.40;99.90;;;;;;5070180;28;20033;-75
2021/10/20 11:01:50;;;;;;;7.75;6.15;;;18.40;99.90;;;;;;5067796;28;20028;-79
2021/10/20 11:04:19;;;;;;;9.00;5.72;;;18.50;99.90;;;;;;5063852;28;20081;-77
2021/10/20 11:06:45;;;;;;;7.78;5.97;;;18.50;99.90;;;;;;5071152;28;20070;-78
2021/10/20 11:09:15;;;;;;;10.98;5.97;;;18.50;99.90;;;;;;5070383;28;20082;-76
2021/10/20 11:11:53;;;;;;;6.65;6.00;;;18.50;99.90;;;;;;5065467;28;20027;-76
2021/10/20 11:14:24;;;;;;;7.82;6.72;;;18.50;99.90;;;;;;5062827;28;20049;-76
2021/10/20 11:16:59;;;;;;;8.95;6.40;;;18.40;99.90;;;;;;5062499;28;20016;-76
2021/10/20 11:19:25;;;;;;;7.65;6.05;;;18.40;99.90;;;;;;5057235;28;20037;-74
2021/10/20 11:21:51;;;;;;;7.82;6.57;;;18.40;99.90;;;;;;5068379;28;20020;-75
2021/10/20 11:24:17;;;;;;;7.93;6.45;;;18.50;99.90;;;;;;5060026;28;20492;-75
2021/10/20 11:26:48;;;;;;;7.05;6.35;;;18.40;99.90;;;;;;5053657;28;20029;-74
2021/10/20 11:29:13;;;;;;;8.13;6.32;;;18.40;99.90;;;;;;5059408;28;20478;-75
2021/10/20 11:31:51;;;;;;;8.00;6.30;;;18.40;99.90;;;;;;5059750;28;20048;-80
2021/10/20 11:34:17;;;;;;;7.10;6.18;;;18.40;99.90;;;;;;5063095;28;20025;-79
2021/10/20 11:36:44;;;;;;;8.70;6.25;;;18.40;99.90;;;;;;5062217;28;20500;-79
2021/10/20 11:39:10;;;;;;;9.05;5.85;;;18.40;99.90;;;;;;5063635;28;20044;-78
2021/10/20 11:41:58;;;;;;;7.65;5.97;;;18.40;99.90;;;;;;5063335;28;20021;-79
2021/10/20 11:44:28;;;;;;;7.65;6.13;;;18.40;99.90;;;;;;5066079;28;20044;-79
2021/10/20 11:46:59;;;;;;;10.00;6.47;;;18.40;99.90;;;;;;5072482;28;20032;-79
2021/10/20 11:49:25;;;;;;;7.38;5.93;;;18.50;99.90;;;;;;5062819;28;20663;-80
2021/10/20 11:51:52;;;;;;;14.02;5.90;;;18.50;99.90;;;;;;5060266;28;20240;-79
2021/10/20 11:54:19;;;;;;;9.88;6.75;;;18.60;99.90;;;;;;5061486;28;20393;-79
2021/10/20 11:56:53;;;;;;;10.23;6.78;;;18.60;99.90;;;;;;5062039;28;20492;-79
2021/10/20 11:59:27;;;;;;;7.82;6.15;;;18.60;99.90;;;;;;5063089;28;20064;-80
2021/10/20 12:01:53;;;;;;;8.23;5.85;;;18.50;99.90;;;;;;5066948;28;20070;-80
2021/10/20 12:04:21;;;;;;;9.75;6.70;;;18.50;99.90;;;;;;5067110;28;20601;-81
2021/10/20 12:06:54;;;;;;;7.38;6.28;;;18.50;99.90;;;;;;5066493;28;20358;-79
2021/10/20 12:09:23;;;;;;;8.70;6.55;;;18.50;99.90;;;;;;5067414;28;20017;-79
2021/10/20 12:11:49;;;;;;;8.43;6.53;;;18.60;99.90;;;;;;5060054;28;20037;-79
2021/10/20 12:14:17;;;;;;;9.18;6.30;;;18.60;99.90;;;;;;5066236;28;20017;-78
2021/10/20 12:16:44;;;;;;;10.35;6.38;;;18.50;99.90;;;;;;5066143;28;20032;-79
2021/10/20 12:19:10;;;;;;;9.05;7.45;;;18.50;99.90;;;;;;5064771;28;20032;-79
2021/10/20 12:21:39;;;;;;;12.38;7.75;;;18.50;99.90;;;;;;5070966;28;20028;-78
2021/10/20 12:24:06;;;;;;;10.70;7.00;;;18.50;99.90;;;;;;5071634;28;20504;-79
2021/10/20 12:26:34;;;;;;;10.80;6.80;;;18.40;99.90;;;;;;5067698;28;20021;-79
2021/10/20 12:29:06;;;;;;;12.00;7.53;;;18.40;99.90;;;;;;5070331;28;20021;-77
2021/10/20 12:31:33;;;;;;;11.25;8.45;;;18.40;99.90;;;;;;5070832;28;20416;-77
2021/10/20 12:33:59;;;;;;;11.95;8.10;;;18.30;99.90;;;;;;5067088;28;20484;-79
2021/10/20 12:36:27;;;;;;;13.35;7.80;;;18.20;99.90;;;;;;5070732;28;20028;-79
2021/10/20 12:38:56;;;;;;;9.75;7.75;;;18.10;99.90;;;;;;5065922;28;20075;-79
2021/10/20 12:41:25;;;;;;;13.35;8.68;;;18.00;99.90;;;;;;5067285;28;20032;-78
2021/10/20 12:43:55;;;;;;;11.20;8.63;;;18.00;99.90;;;;;;5073966;28;20063;-78
2021/10/20 12:46:21;;;;;;;10.77;8.40;;;18.00;99.90;;;;;;5072495;28;20488;-77